Morrisburg, Canada
Current Conditions -  °F | °C
As of 11:53 PM on Sunday 21 Dec 2014 (Local Time) from KMSS Reporting Station
Haze Haze  
Wind Chill: 11°   Ceiling: 600
Heat Index: 18°   Visibility: 6mi
Dew Point: 14°   Wind: 5mph
Humidity: 84%   Direction: 90°E
Pressure: 30.4"   Gusts: NA
Location:  44.9°N, 75.18°W
Report Text: KMSS 220453Z AUTO 09004KT 6SM BR OVC006 M08/M10 A3040 RMK AO2 SLP303 T10781100 410561106
Loading
Personal Weather Stations






























Interactive Weather Map New forecast layout! Learn more

10-Day Weather Forecast

Advertisements
Track Severe Weather on mobile